createdAt,value
2023-01-11T00:01:13.578Z,2.00
2023-01-11T00:03:42.166Z,2.27
2023-01-11T00:06:12.560Z,1.90
2023-01-11T00:08:41.298Z,2.30
2023-01-11T00:11:16.871Z,2.53
2023-01-11T00:13:46.041Z,2.27
2023-01-11T00:16:14.879Z,2.00
2023-01-11T00:18:43.491Z,1.93
2023-01-11T00:21:13.481Z,2.43
2023-01-11T00:23:41.585Z,2.10
2023-01-11T00:26:13.787Z,2.03
2023-01-11T00:28:41.873Z,1.77
2023-01-11T00:31:10.569Z,2.20
2023-01-11T00:33:38.702Z,1.90
2023-01-11T00:36:07.450Z,1.70
2023-01-11T00:38:46.989Z,2.50
2023-01-11T00:41:34.351Z,1.73
2023-01-11T00:44:21.031Z,2.00
2023-01-11T00:47:08.282Z,1.73
2023-01-11T00:49:37.062Z,2.03
2023-01-11T00:52:09.322Z,2.87
2023-01-11T00:54:39.383Z,1.90
2023-01-11T00:57:08.553Z,1.80
2023-01-11T00:59:39.424Z,1.67
2023-01-11T01:02:08.934Z,2.33
2023-01-11T01:04:37.054Z,1.70
2023-01-11T01:07:06.333Z,2.10
2023-01-11T01:09:34.879Z,1.90
2023-01-11T01:12:03.545Z,1.73
2023-01-11T01:14:33.263Z,1.60
2023-01-11T01:17:09.508Z,1.60
2023-01-11T01:19:39.976Z,1.40
2023-01-11T01:22:08.118Z,1.50
2023-01-11T01:24:36.672Z,1.30
2023-01-11T01:27:05.139Z,1.83
2023-01-11T01:29:33.461Z,1.40
2023-01-11T01:32:01.970Z,1.50
2023-01-11T01:34:30.502Z,2.17
2023-01-11T01:36:58.550Z,1.53
2023-01-11T01:39:26.735Z,1.60
2023-01-11T01:41:54.796Z,1.80
2023-01-11T01:45:08.122Z,1.63
2023-01-11T01:47:52.036Z,1.33
2023-01-11T01:50:32.012Z,1.50
2023-01-11T01:53:10.899Z,1.37
2023-01-11T01:55:46.629Z,1.20
2023-01-11T01:58:18.084Z,1.40
2023-01-11T02:00:47.947Z,1.57
2023-01-11T02:03:26.765Z,1.50
2023-01-11T02:05:55.610Z,2.10
2023-01-11T02:08:39.357Z,1.33
2023-01-11T02:11:29.205Z,1.33
2023-01-11T02:14:04.707Z,1.50
2023-01-11T02:16:33.202Z,1.43
2023-01-11T02:19:02.058Z,1.30
2023-01-11T02:22:14.072Z,1.70
2023-01-11T02:25:09.403Z,1.30
2023-01-11T02:28:18.750Z,1.70
2023-01-11T02:31:06.262Z,1.20
2023-01-11T02:34:02.089Z,1.23
2023-01-11T02:36:48.453Z,1.37
2023-01-11T02:40:08.174Z,1.50
2023-01-11T02:43:12.863Z,1.63
2023-01-11T02:46:05.712Z,1.37
2023-01-11T02:49:05.513Z,1.50
2023-01-11T02:51:42.880Z,1.40
2023-01-11T02:54:13.221Z,1.80
2023-01-11T02:56:48.826Z,1.83
2023-01-11T02:59:25.455Z,1.60
2023-01-11T03:01:55.797Z,1.90
2023-01-11T03:04:36.798Z,1.97
2023-01-11T03:07:55.107Z,1.47
2023-01-11T03:10:29.176Z,1.80
2023-01-11T03:13:26.856Z,1.67
2023-01-11T03:16:08.540Z,1.60
2023-01-11T03:18:54.245Z,1.53
2023-01-11T03:21:41.254Z,1.30
2023-01-11T03:24:30.419Z,1.27
2023-01-11T03:27:18.384Z,1.40
2023-01-11T03:30:18.877Z,1.73
2023-01-11T03:32:56.279Z,1.33
2023-01-11T03:35:41.308Z,1.57
2023-01-11T03:38:21.840Z,1.37
2023-01-11T03:41:06.716Z,1.50
2023-01-11T03:43:38.113Z,1.20
2023-01-11T03:46:15.576Z,1.57
2023-01-11T03:48:56.797Z,1.50
2023-01-11T03:51:31.967Z,1.33
2023-01-11T03:54:05.156Z,1.20
2023-01-11T03:57:10.786Z,1.67
2023-01-11T03:59:41.186Z,1.33
2023-01-11T04:02:23.517Z,1.30
2023-01-11T04:04:51.848Z,1.67
2023-01-11T04:07:20.065Z,1.23
2023-01-11T04:09:48.230Z,1.30
2023-01-11T04:12:16.367Z,1.53
2023-01-11T04:14:44.926Z,1.40
2023-01-11T04:17:13.361Z,1.80
2023-01-11T04:19:41.938Z,1.47
2023-01-11T04:22:10.116Z,1.50
2023-01-11T04:24:38.179Z,1.30
2023-01-11T04:27:06.417Z,1.50
2023-01-11T04:29:34.540Z,1.50
2023-01-11T04:32:03.716Z,1.70
2023-01-11T04:34:32.156Z,1.40
2023-01-11T04:37:00.304Z,1.80
2023-01-11T04:39:28.520Z,1.53
2023-01-11T04:42:13.683Z,1.33
2023-01-11T04:44:41.858Z,1.27
2023-01-11T04:47:09.976Z,1.63
2023-01-11T04:49:38.435Z,1.30
2023-01-11T04:52:06.936Z,1.40
2023-01-11T04:54:35.064Z,1.33
2023-01-11T04:57:03.124Z,1.30
2023-01-11T04:59:31.684Z,1.73
2023-01-11T05:01:59.855Z,1.40
2023-01-11T05:04:28.046Z,1.83
2023-01-11T05:06:56.601Z,1.63
2023-01-11T05:09:25.080Z,1.60
2023-01-11T05:11:53.647Z,1.27
2023-01-11T05:14:21.795Z,1.63
2023-01-11T05:16:50.113Z,1.60
2023-01-11T05:19:18.676Z,1.70
2023-01-11T05:21:46.817Z,1.63
2023-01-11T05:24:17.861Z,1.53
2023-01-11T05:26:48.484Z,1.67
2023-01-11T05:29:18.972Z,1.53
2023-01-11T05:31:47.189Z,1.53
2023-01-11T05:34:16.992Z,1.60
2023-01-11T05:36:45.616Z,1.90
2023-01-11T05:39:15.401Z,1.47
2023-01-11T05:41:43.603Z,1.60
2023-01-11T05:44:32.221Z,1.90
2023-01-11T05:47:00.937Z,1.87
2023-01-11T05:49:29.387Z,1.87
2023-01-11T05:51:57.494Z,2.00
2023-01-11T05:54:25.658Z,1.70
2023-01-11T05:56:54.060Z,1.80
2023-01-11T05:59:22.217Z,1.97
2023-01-11T06:01:51.178Z,1.60
2023-01-11T06:04:19.282Z,2.10
2023-01-11T06:06:47.411Z,1.63
2023-01-11T06:09:15.593Z,1.83
2023-01-11T06:11:44.016Z,1.83
2023-01-11T06:14:12.129Z,1.90
2023-01-11T06:16:40.445Z,1.77
2023-01-11T06:19:08.941Z,1.93
2023-01-11T06:21:37.413Z,1.80
2023-01-11T06:24:06.108Z,1.80
2023-01-11T06:26:34.223Z,1.57
2023-01-11T06:29:02.287Z,1.60
2023-01-11T06:31:30.734Z,1.67
2023-01-11T06:33:58.813Z,1.90
2023-01-11T06:36:29.674Z,1.63
2023-01-11T06:38:58.350Z,1.80
2023-01-11T06:41:28.657Z,1.70
2023-01-11T06:43:56.787Z,1.70
2023-01-11T06:46:26.955Z,1.80
2023-01-11T06:48:56.632Z,2.00
2023-01-11T06:51:25.123Z,1.70
2023-01-11T06:53:53.248Z,1.80
2023-01-11T06:56:21.753Z,1.90
2023-01-11T06:58:50.934Z,1.70
2023-01-11T07:01:20.492Z,1.77
2023-01-11T07:03:49.207Z,2.20
2023-01-11T07:06:17.660Z,2.30
2023-01-11T07:08:45.870Z,2.00
2023-01-11T07:11:14.405Z,1.47
2023-01-11T07:13:42.472Z,1.40
2023-01-11T07:16:11.048Z,1.90
2023-01-11T07:18:39.197Z,1.50
2023-01-11T07:21:07.404Z,1.13
2023-01-11T07:23:35.876Z,1.10
2023-01-11T07:26:04.402Z,1.10
2023-01-11T07:28:32.927Z,1.23
2023-01-11T07:31:01.062Z,1.37
2023-01-11T07:33:29.403Z,1.53
2023-01-11T07:35:58.379Z,1.40
2023-01-11T07:38:28.595Z,1.43
2023-01-11T07:40:56.916Z,1.50
2023-01-11T07:43:24.695Z,1.30
2023-01-11T07:45:54.371Z,1.50
2023-01-11T07:48:27.072Z,1.20
2023-01-11T07:50:56.031Z,1.47
2023-01-11T07:53:26.692Z,1.20
2023-01-11T07:55:57.201Z,1.57
2023-01-11T07:58:25.674Z,1.20
2023-01-11T08:00:53.884Z,1.50
2023-01-11T08:03:22.239Z,1.60
2023-01-11T08:05:54.307Z,1.57
2023-01-11T08:08:23.209Z,1.33
2023-01-11T08:11:11.974Z,1.23
2023-01-11T08:13:57.811Z,1.20
2023-01-11T08:16:27.328Z,1.10
2023-01-11T08:18:55.875Z,1.30
2023-01-11T08:21:24.397Z,1.40
2023-01-11T08:23:55.418Z,1.10
2023-01-11T08:26:28.356Z,1.13
2023-01-11T08:28:56.880Z,1.10
2023-01-11T08:31:26.246Z,1.10
2023-01-11T08:33:54.784Z,1.13
2023-01-11T08:36:24.480Z,1.20
2023-01-11T08:38:56.826Z,1.10
2023-01-11T08:41:26.138Z,1.40
2023-01-11T08:43:54.621Z,1.10
2023-01-11T08:46:23.431Z,1.10
2023-01-11T08:48:53.556Z,0.93
2023-01-11T08:51:22.851Z,1.20
2023-01-11T08:53:53.533Z,1.30
2023-01-11T08:56:21.964Z,1.23
2023-01-11T08:58:50.371Z,0.90
2023-01-11T09:01:18.414Z,0.90
2023-01-11T09:03:46.863Z,1.10
2023-01-11T09:06:14.966Z,0.80
2023-01-11T09:08:43.874Z,1.23
2023-01-11T09:11:26.289Z,1.03
2023-01-11T09:13:54.745Z,1.40
2023-01-11T09:16:23.246Z,0.87
2023-01-11T09:18:51.401Z,0.60
2023-01-11T09:21:19.853Z,1.07
2023-01-11T09:23:48.413Z,1.00
2023-01-11T09:26:21.603Z,0.83
2023-01-11T09:28:50.095Z,1.40
2023-01-11T09:31:18.592Z,0.77
2023-01-11T09:33:47.194Z,1.27
2023-01-11T09:36:17.967Z,0.90
2023-01-11T09:38:47.214Z,0.80
2023-01-11T09:42:06.225Z,1.00
2023-01-11T09:44:38.278Z,0.77
2023-01-11T09:47:45.132Z,0.90
2023-01-11T09:50:31.077Z,0.87
2023-01-11T09:53:08.319Z,0.70
2023-01-11T09:55:44.783Z,1.13
2023-01-11T09:59:02.591Z,0.90
2023-01-11T10:01:54.912Z,0.90
2023-01-11T10:04:52.130Z,1.00
2023-01-11T10:07:53.764Z,0.93
2023-01-11T10:18:23.430Z,0.97
2023-01-11T10:18:32.234Z,0.80
2023-01-11T10:20:16.191Z,0.90
2023-01-11T10:22:48.349Z,0.87
2023-01-11T10:25:22.033Z,0.90
2023-01-11T10:27:57.072Z,0.80
2023-01-11T10:30:57.544Z,0.90
2023-01-11T10:33:57.455Z,1.03
2023-01-11T10:37:04.641Z,1.10
2023-01-11T10:40:19.473Z,0.80
2023-01-11T10:43:03.865Z,0.77
2023-01-11T10:45:56.755Z,1.10
2023-01-11T10:48:33.646Z,1.00
2023-01-11T10:51:16.290Z,1.00
2023-01-11T10:57:18.118Z,0.80
2023-01-11T11:00:36.621Z,0.90
2023-01-11T11:03:20.118Z,0.73
2023-01-11T11:06:19.322Z,0.93
2023-01-11T11:09:14.655Z,0.70
2023-01-11T11:11:53.296Z,0.80
2023-01-11T11:14:39.082Z,0.93
2023-01-11T11:17:36.227Z,0.80
2023-01-11T11:20:30.338Z,0.87
2023-01-11T11:22:58.908Z,0.80
2023-01-11T11:25:35.609Z,1.13
2023-01-11T11:28:25.737Z,0.90
2023-01-11T11:30:58.151Z,1.00
2023-01-11T11:33:39.504Z,1.00
2023-01-11T11:36:13.602Z,1.30
2023-01-11T11:39:02.756Z,1.10
2023-01-11T11:41:31.245Z,1.10
2023-01-11T11:44:21.708Z,1.00
2023-01-11T11:47:24.913Z,0.90
2023-01-11T11:50:43.179Z,1.00
2023-01-11T11:53:47.421Z,1.00
2023-01-11T11:56:32.598Z,0.63
2023-01-11T11:59:09.381Z,0.90
2023-01-11T12:01:41.025Z,0.93
2023-01-11T12:04:20.470Z,0.83
2023-01-11T12:07:08.885Z,0.77
2023-01-11T12:09:38.123Z,0.80
2023-01-11T12:12:06.943Z,0.77
2023-01-11T12:14:37.742Z,1.00
2023-01-11T12:17:26.867Z,0.93
2023-01-11T12:19:54.997Z,0.70
2023-01-11T12:22:26.100Z,0.87
2023-01-11T12:25:15.991Z,1.03
2023-01-11T12:28:15.230Z,0.83
2023-01-11T12:31:19.110Z,0.83
2023-01-11T12:34:26.085Z,1.10
2023-01-11T12:37:13.325Z,0.60
2023-01-11T12:39:53.449Z,0.80
2023-01-11T12:42:40.065Z,0.80
2023-01-11T12:45:32.151Z,0.90
2023-01-11T12:48:06.769Z,0.97
2023-01-11T12:51:09.665Z,0.63
2023-01-11T12:53:47.635Z,1.73
2023-01-11T12:56:36.883Z,0.77
2023-01-11T12:59:59.330Z,0.73
2023-01-11T13:02:56.079Z,0.70
2023-01-11T13:06:01.635Z,0.50
2023-01-11T13:09:00.455Z,0.80
2023-01-11T13:11:45.807Z,0.60
2023-01-11T13:14:49.935Z,0.80
2023-01-11T13:17:46.843Z,0.90
2023-01-11T13:20:29.974Z,0.70
2023-01-11T13:23:18.340Z,1.00
2023-01-11T13:25:49.644Z,0.80
2023-01-11T13:28:30.678Z,0.60
2023-01-11T13:31:01.167Z,0.80
2023-01-11T13:33:32.101Z,0.60
2023-01-11T13:36:23.163Z,0.63
2023-01-11T13:39:02.810Z,0.70
2023-01-11T13:42:05.422Z,0.70
2023-01-11T13:44:42.469Z,0.70
2023-01-11T13:47:35.916Z,0.60
2023-01-11T13:50:22.791Z,0.80
2023-01-11T13:53:10.076Z,0.60
2023-01-11T13:55:40.946Z,0.90
2023-01-11T13:58:17.465Z,0.80
2023-01-11T14:00:50.833Z,0.93
2023-01-11T14:03:32.505Z,0.80
2023-01-11T14:06:19.100Z,0.70
2023-01-11T14:09:24.980Z,0.80
2023-01-11T14:12:04.129Z,0.60
2023-01-11T14:15:18.950Z,0.73
2023-01-11T14:17:49.765Z,0.77
2023-01-11T14:20:48.380Z,0.60
2023-01-11T14:23:33.933Z,0.70
2023-01-11T14:26:26.731Z,0.97
2023-01-11T14:29:28.643Z,0.90
2023-01-11T14:32:07.639Z,0.90
2023-01-11T14:35:24.230Z,0.70
2023-01-11T14:38:10.112Z,0.73
2023-01-11T14:40:57.209Z,0.87
2023-01-11T14:43:43.499Z,0.87
2023-01-11T14:46:46.846Z,0.97
2023-01-11T14:49:21.324Z,0.80
2023-01-11T14:52:38.559Z,0.87
2023-01-11T14:55:17.687Z,0.87
2023-01-11T14:58:11.444Z,0.80
2023-01-11T15:00:45.301Z,0.90
2023-01-11T15:03:18.217Z,0.97
2023-01-11T15:06:13.602Z,0.80
2023-01-11T15:08:55.083Z,1.10
2023-01-11T15:11:38.064Z,1.03
2023-01-11T15:14:23.881Z,1.10
2023-01-11T15:17:13.273Z,1.20
2023-01-11T15:19:43.590Z,1.07
2023-01-11T15:22:31.307Z,1.20
2023-01-11T15:25:23.598Z,1.17
2023-01-11T15:27:53.218Z,1.20
2023-01-11T15:30:30.304Z,1.00
2023-01-11T15:33:20.324Z,0.90
2023-01-11T15:35:57.216Z,1.10
2023-01-11T15:38:52.958Z,1.10
2023-01-11T15:41:59.745Z,1.30
2023-01-11T15:45:10.228Z,1.03
2023-01-11T15:47:56.392Z,0.87
2023-01-11T15:50:50.537Z,0.90
2023-01-11T15:53:52.435Z,0.97
2023-01-11T15:57:05.621Z,1.03
2023-01-11T16:00:21.359Z,0.80
2023-01-11T16:03:14.056Z,0.87
2023-01-11T16:05:54.851Z,0.73
2023-01-11T16:08:32.196Z,1.03
2023-01-11T16:11:41.088Z,0.80
2023-01-11T16:14:47.631Z,1.00
2023-01-11T16:17:22.518Z,0.90
2023-01-11T16:19:56.609Z,0.97
2023-01-11T16:22:27.298Z,0.90
2023-01-11T16:25:02.315Z,1.10
2023-01-11T16:27:35.481Z,1.00
2023-01-11T16:30:04.180Z,1.10
2023-01-11T16:32:33.741Z,1.10
2023-01-11T16:35:03.701Z,1.40
2023-01-11T16:37:39.388Z,1.17
2023-01-11T16:40:25.607Z,1.13
2023-01-11T16:42:59.998Z,1.23
2023-01-11T16:45:45.349Z,1.27
2023-01-11T16:48:25.006Z,1.10
2023-01-11T16:51:19.235Z,1.10
2023-01-11T16:53:58.070Z,1.33
2023-01-11T16:56:26.786Z,1.00
2023-01-11T16:59:16.114Z,1.13
2023-01-11T17:01:58.686Z,0.90
2023-01-11T17:04:38.288Z,1.30
2023-01-11T17:07:25.670Z,1.10
2023-01-11T17:09:54.121Z,1.27
2023-01-11T17:12:27.766Z,1.30
2023-01-11T17:15:43.841Z,1.27
2023-01-11T17:18:12.519Z,1.33
2023-01-11T17:20:40.974Z,1.40
2023-01-11T17:23:13.384Z,1.20
2023-01-11T17:25:45.183Z,1.10
2023-01-11T17:28:20.801Z,1.10
2023-01-11T17:30:51.829Z,1.30
2023-01-11T17:33:35.020Z,1.40
2023-01-11T17:36:04.180Z,1.63
2023-01-11T17:38:32.907Z,1.40
2023-01-11T17:41:02.503Z,1.37
2023-01-11T17:43:48.891Z,1.67
2023-01-11T17:46:25.613Z,1.50
2023-01-11T17:49:02.254Z,1.43
2023-01-11T17:51:33.648Z,2.10
2023-01-11T17:54:02.133Z,2.00
2023-01-11T17:56:42.725Z,1.80
2023-01-11T17:59:21.429Z,1.93
2023-01-11T18:01:52.689Z,1.90
2023-01-11T18:04:23.585Z,2.20
2023-01-11T18:06:58.150Z,2.20
2023-01-11T18:09:32.922Z,2.50
2023-01-11T18:12:17.703Z,2.40
2023-01-11T18:15:01.713Z,2.50
2023-01-11T18:17:42.206Z,2.37
2023-01-11T18:20:32.139Z,2.83
2023-01-11T18:23:20.856Z,3.10
2023-01-11T18:25:49.380Z,2.50
2023-01-11T18:28:23.133Z,2.70
2023-01-11T18:30:53.904Z,2.50
2023-01-11T18:33:25.930Z,3.33
2023-01-11T18:36:05.384Z,3.33
2023-01-11T18:38:36.465Z,3.83
2023-01-11T18:41:24.271Z,3.73
2023-01-11T18:43:53.834Z,4.13
2023-01-11T18:46:22.312Z,7.17
2023-01-11T18:48:50.924Z,6.67
2023-01-11T18:51:51.423Z,5.13
2023-01-11T18:57:11.779Z,3.53
2023-01-11T18:59:40.552Z,3.87
2023-01-11T19:04:49.606Z,5.53
2023-01-11T19:07:17.957Z,4.13
2023-01-11T19:09:46.618Z,3.70
2023-01-11T19:12:15.954Z,4.27
2023-01-11T19:14:44.724Z,3.67
2023-01-11T19:17:14.013Z,3.77
2023-01-11T19:19:42.705Z,3.70
2023-01-11T19:22:12.496Z,4.40
2023-01-11T19:24:41.452Z,4.20
2023-01-11T19:27:10.057Z,3.67
2023-01-11T19:29:38.538Z,4.50
2023-01-11T19:32:07.273Z,5.77
2023-01-11T19:34:36.127Z,4.57
2023-01-11T19:37:04.621Z,5.40
2023-01-11T19:39:33.098Z,5.20
2023-01-11T19:42:03.093Z,4.73
2023-01-11T19:44:32.317Z,4.67
2023-01-11T19:47:16.976Z,4.63
2023-01-11T19:50:03.390Z,4.23
2023-01-11T19:52:32.042Z,4.33
2023-01-11T19:55:00.529Z,4.43
2023-01-11T19:57:29.653Z,3.70
2023-01-11T20:00:03.946Z,3.30
2023-01-11T20:02:32.360Z,4.03
2023-01-11T20:05:00.906Z,3.10
2023-01-11T20:07:29.435Z,4.00
2023-01-11T20:09:57.638Z,3.67
2023-01-11T20:12:26.182Z,3.57
2023-01-11T20:14:57.704Z,3.37
2023-01-11T20:17:26.263Z,3.40
2023-01-11T20:19:55.354Z,3.60
2023-01-11T20:22:25.763Z,4.10
2023-01-11T20:24:56.006Z,3.37
2023-01-11T20:27:24.437Z,3.97
2023-01-11T20:29:52.829Z,4.17
2023-01-11T20:32:41.025Z,3.43
2023-01-11T20:35:10.636Z,3.90
2023-01-11T20:37:39.041Z,3.90
2023-01-11T20:40:08.608Z,3.30
2023-01-11T20:42:37.166Z,3.30
2023-01-11T20:45:05.999Z,3.90
2023-01-11T20:47:34.030Z,3.43
2023-01-11T20:50:03.171Z,4.50
2023-01-11T20:52:31.738Z,3.93
2023-01-11T20:55:00.200Z,3.17
2023-01-11T20:57:29.373Z,3.33
2023-01-11T20:59:57.959Z,3.27
2023-01-11T21:02:26.318Z,3.63
2023-01-11T21:04:54.524Z,3.77
2023-01-11T21:07:23.165Z,3.03
2023-01-11T21:09:51.712Z,4.07
2023-01-11T21:12:20.368Z,4.00
2023-01-11T21:14:48.839Z,3.00
2023-01-11T21:17:17.773Z,3.43
2023-01-11T21:19:46.462Z,2.83
2023-01-11T21:22:14.884Z,3.20
2023-01-11T21:24:44.312Z,2.87
2023-01-11T21:27:12.760Z,2.50
2023-01-11T21:29:41.346Z,2.87
2023-01-11T21:32:10.026Z,2.53
2023-01-11T21:34:40.171Z,2.50
2023-01-11T21:37:08.639Z,2.70
2023-01-11T21:39:36.685Z,3.30
2023-01-11T21:42:05.160Z,3.07
2023-01-11T21:44:35.121Z,2.53
2023-01-11T21:47:06.548Z,2.50
2023-01-11T21:49:34.986Z,2.70
2023-01-11T21:52:03.601Z,2.40
2023-01-11T21:54:31.991Z,3.10
2023-01-11T21:57:00.437Z,3.00
2023-01-11T21:59:30.039Z,3.57
2023-01-11T22:01:58.498Z,3.27
2023-01-11T22:04:26.960Z,3.87
2023-01-11T22:06:56.130Z,3.03
2023-01-11T22:09:25.991Z,2.87
2023-01-11T22:12:04.211Z,2.30
2023-01-11T22:14:32.757Z,2.80
2023-01-11T22:17:02.531Z,2.43
2023-01-11T22:19:32.866Z,3.17
2023-01-11T22:22:00.911Z,2.90
2023-01-11T22:24:28.887Z,2.60
2023-01-11T22:26:57.381Z,3.00
2023-01-11T22:29:29.102Z,2.77
2023-01-11T22:32:01.424Z,2.50
2023-01-11T22:34:29.751Z,2.90
2023-01-11T22:36:58.160Z,2.60
2023-01-11T22:39:26.640Z,3.43
2023-01-11T22:41:55.137Z,3.37
2023-01-11T22:44:25.262Z,3.30
2023-01-11T22:46:53.657Z,3.33
2023-01-11T22:49:22.180Z,3.40
2023-01-11T22:51:50.579Z,3.30
2023-01-11T22:54:19.527Z,2.80
2023-01-11T22:56:48.333Z,2.87
2023-01-11T22:59:16.787Z,2.40
2023-01-11T23:01:44.798Z,2.93
2023-01-11T23:04:15.021Z,3.27
2023-01-11T23:06:44.300Z,2.70
2023-01-11T23:09:16.689Z,2.53
2023-01-11T23:12:03.320Z,2.30
2023-01-11T23:14:33.751Z,2.37
2023-01-11T23:17:06.540Z,2.83
2023-01-11T23:19:36.865Z,2.60
2023-01-11T23:22:05.962Z,2.63
2023-01-11T23:24:34.602Z,2.53
2023-01-11T23:27:03.274Z,2.30
2023-01-11T23:29:31.531Z,2.90
2023-01-11T23:32:00.248Z,2.40
2023-01-11T23:34:28.779Z,2.30
2023-01-11T23:36:57.459Z,2.50
2023-01-11T23:39:25.937Z,1.90
2023-01-11T23:42:11.236Z,2.23
2023-01-11T23:44:39.691Z,2.60
2023-01-11T23:47:22.119Z,2.17
2023-01-11T23:49:54.700Z,2.10
2023-01-11T23:52:27.313Z,1.80
2023-01-11T23:54:56.106Z,2.17
2023-01-11T23:57:26.561Z,2.40
2023-01-11T23:59:54.637Z,2.27
